Time;durP1;ratioP1;P1;durP2;ratioP2;P2;SDS_P1;SDS_P2;PMS_P1;PMS_P2;Temp;Humidity;BMP_temperature;BMP_pressure;BME280_temperature;BME280_humidity;BME280_pressure;Samples;Min_cycle;Max_cycle;Signal;HPM_P1;HPM_P2
2022/03/30 00:00:42;;;;;;;;;;;;;;;;;;2096932;28;19978;-47
2022/03/30 00:01:42;;;;;;;;;;;;;;;;;;2096867;28;19932;-46
2022/03/30 00:02:44;;;;;;;;;;;;;;;;;;2097824;28;19932;-51
2022/03/30 00:03:45;;;;;;;;;;;;;;;;;;2097029;28;20401;-41
2022/03/30 00:04:48;;;;;;;;;;;;;;;;;;2097011;28;20321;-41
2022/03/30 00:05:49;;;;;;;;;;;;;;;;;;2096912;28;19933;-41
2022/03/30 00:06:50;;;;;;;;;;;;;;;;;;2096517;28;19924;-41
2022/03/30 00:07:51;;;;;;;;;;;;;;;;;;2096946;28;19999;-41
2022/03/30 00:08:52;;;;;;;;;;;;;;;;;;2096578;28;20344;-47
2022/03/30 00:09:53;;;;;;;;;;;;;;;;;;2096877;28;20298;-47
2022/03/30 00:10:54;;;;;;;;;;;;;;;;;;2096769;28;19928;-47
2022/03/30 00:11:56;;;;;;;;;;;;;;;;;;2096743;28;19936;-47
2022/03/30 00:12:57;;;;;;;;;;;;;;;;;;2097454;28;19931;-41
2022/03/30 00:13:58;;;;;;;;;;;;;;;;;;2097017;28;20332;-41
2022/03/30 00:14:59;;;;;;;;;;;;;;;;;;2096648;28;19929;-41
2022/03/30 00:16:00;;;;;;;;;;;;;;;;;;2096777;28;19940;-41
2022/03/30 00:17:01;;;;;;;;;;;;;;;;;;2096608;28;19924;-41
2022/03/30 00:18:02;;;;;;;;;;;;;;;;;;2096728;28;19968;-41
2022/03/30 00:19:03;;;;;;;;;;;;;;;;;;2097617;28;19931;-41
2022/03/30 00:20:04;;;;;;;;;;;;;;;;;;2097124;28;19925;-41
2022/03/30 00:21:05;;;;;;;;;;;;;;;;;;2096633;28;19935;-41
2022/03/30 00:22:06;;;;;;;;;;;;;;;;;;2097262;28;19946;-41
2022/03/30 00:23:07;;;;;;;;;;;;;;;;;;2097320;28;19932;-41
2022/03/30 00:24:08;;;;;;;;;;;;;;;;;;2097095;28;19932;-48
2022/03/30 00:25:10;;;;;;;;;;;;;;;;;;2096330;28;19974;-41
2022/03/30 00:26:11;;;;;;;;;;;;;;;;;;2096564;28;19977;-41
2022/03/30 00:27:12;;;;;;;;;;;;;;;;;;2096812;28;19977;-41
2022/03/30 00:28:13;;;;;;;;;;;;;;;;;;2097608;28;19928;-41
2022/03/30 00:29:14;;;;;;;;;;;;;;;;;;2096708;28;19932;-41
2022/03/30 00:30:15;;;;;;;;;;;;;;;;;;2096516;28;19957;-42
2022/03/30 00:31:18;;;;;;;;;;;;;;;;;;2096439;28;20107;-41
2022/03/30 00:32:19;;;;;;;;;;;;;;;;;;2095885;28;20094;-41
2022/03/30 00:33:20;;;;;;;;;;;;;;;;;;2096387;28;19924;-41
2022/03/30 00:34:21;;;;;;;;;;;;;;;;;;2097213;28;19924;-41
2022/03/30 00:35:22;;;;;;;;;;;;;;;;;;2096716;28;19931;-41
2022/03/30 00:36:23;;;;;;;;;;;;;;;;;;2097457;28;19979;-41
2022/03/30 00:37:24;;;;;;;;;;;;;;;;;;2097218;28;20293;-41
2022/03/30 00:38:25;;;;;;;;;;;;;;;;;;2095927;28;19932;-41
2022/03/30 00:39:26;;;;;;;;;;;;;;;;;;2096556;28;20037;-41
2022/03/30 00:40:27;;;;;;;;;;;;;;;;;;2096834;28;19928;-47
2022/03/30 00:41:28;;;;;;;;;;;;;;;;;;2096510;28;20433;-49
2022/03/30 00:42:29;;;;;;;;;;;;;;;;;;2096470;28;20286;-48
2022/03/30 00:43:30;;;;;;;;;;;;;;;;;;2096983;28;19951;-48
2022/03/30 00:44:31;;;;;;;;;;;;;;;;;;2095396;28;20388;-47
2022/03/30 00:45:32;;;;;;;;;;;;;;;;;;2097645;28;19972;-49
2022/03/30 00:46:34;;;;;;;;;;;;;;;;;;2096571;28;19931;-47
2022/03/30 00:47:36;;;;;;;;;;;;;;;;;;2096905;28;19943;-47
2022/03/30 00:48:37;;;;;;;;;;;;;;;;;;2097522;28;20381;-48
2022/03/30 00:49:38;;;;;;;;;;;;;;;;;;2096932;28;19940;-49
2022/03/30 00:50:39;;;;;;;;;;;;;;;;;;2097135;28;19928;-49
2022/03/30 00:51:40;;;;;;;;;;;;;;;;;;2096927;28;19932;-47
2022/03/30 00:52:41;;;;;;;;;;;;;;;;;;2096682;28;19933;-47
2022/03/30 00:53:42;;;;;;;;;;;;;;;;;;2096769;28;19925;-47
2022/03/30 00:54:43;;;;;;;;;;;;;;;;;;2096713;28;19931;-48
2022/03/30 00:55:44;;;;;;;;;;;;;;;;;;2096399;28;19932;-48
2022/03/30 00:56:45;;;;;;;;;;;;;;;;;;2096567;28;20030;-47
2022/03/30 00:57:46;;;;;;;;;;;;;;;;;;2096582;28;19925;-47
2022/03/30 00:58:47;;;;;;;;;;;;;;;;;;2095707;28;20006;-47
2022/03/30 00:59:49;;;;;;;;;;;;;;;;;;2096457;28;19924;-50
2022/03/30 01:00:50;;;;;;;;;;;;;;;;;;2096662;28;19928;-48
2022/03/30 01:01:51;;;;;;;;;;;;;;;;;;2096667;28;20040;-49
2022/03/30 01:02:53;;;;;;;;;;;;;;;;;;2096570;28;19946;-47
2022/03/30 01:03:54;;;;;;;;;;;;;;;;;;2097237;28;19928;-48
2022/03/30 01:04:55;;;;;;;;;;;;;;;;;;2096693;28;20006;-47
2022/03/30 01:05:56;;;;;;;;;;;;;;;;;;2096341;28;19925;-46
2022/03/30 01:06:57;;;;;;;;;;;;;;;;;;2096385;28;19974;-48
2022/03/30 01:07:59;;;;;;;;;;;;;;;;;;2096477;28;20303;-46
2022/03/30 01:09:01;;;;;;;;;;;;;;;;;;2096149;28;20239;-48
2022/03/30 01:10:02;;;;;;;;;;;;;;;;;;2096930;28;20015;-41
2022/03/30 01:11:03;;;;;;;;;;;;;;;;;;2097283;28;19936;-41
2022/03/30 01:12:04;;;;;;;;;;;;;;;;;;2097089;28;19932;-47
2022/03/30 01:13:07;;;;;;;;;;;;;;;;;;2096728;28;20145;-48
2022/03/30 01:14:08;;;;;;;;;;;;;;;;;;2096406;28;19924;-48
2022/03/30 01:15:09;;;;;;;;;;;;;;;;;;2096510;28;19931;-47
2022/03/30 01:16:10;;;;;;;;;;;;;;;;;;2095541;28;19924;-41
2022/03/30 01:17:13;;;;;;;;;;;;;;;;;;2096583;28;19972;-42
2022/03/30 01:18:14;;;;;;;;;;;;;;;;;;2096475;28;19925;-47
2022/03/30 01:19:15;;;;;;;;;;;;;;;;;;2097250;28;20334;-41
2022/03/30 01:20:16;;;;;;;;;;;;;;;;;;2096736;28;19964;-41
2022/03/30 01:21:17;;;;;;;;;;;;;;;;;;2096560;28;19936;-41
2022/03/30 01:22:18;;;;;;;;;;;;;;;;;;2096405;28;19946;-46
2022/03/30 01:23:20;;;;;;;;;;;;;;;;;;2096242;28;19932;-42
2022/03/30 01:24:21;;;;;;;;;;;;;;;;;;2096707;28;20041;-47
2022/03/30 01:25:23;;;;;;;;;;;;;;;;;;2096415;28;19932;-49
2022/03/30 01:26:25;;;;;;;;;;;;;;;;;;2096628;28;19928;-47
2022/03/30 01:27:26;;;;;;;;;;;;;;;;;;2096169;28;19933;-47
2022/03/30 01:28:28;;;;;;;;;;;;;;;;;;2096261;28;19932;-47
2022/03/30 01:32:25;;;;;;;;;;;;;;;;;;2095959;28;19968;-47
2022/03/30 01:33:27;;;;;;;;;;;;;;;;;;2097254;28;19925;-48
2022/03/30 01:34:27;;;;;;;;;;;;;;;;;;2096594;28;20301;-49
2022/03/30 01:35:29;;;;;;;;;;;;;;;;;;2096266;28;19925;-47
2022/03/30 01:36:29;;;;;;;;;;;;;;;;;;2095973;28;19933;-42
2022/03/30 01:37:31;;;;;;;;;;;;;;;;;;2096312;28;19933;-41
2022/03/30 01:38:32;;;;;;;;;;;;;;;;;;2096186;28;19932;-41
2022/03/30 01:39:33;;;;;;;;;;;;;;;;;;2096700;28;19925;-41
2022/03/30 01:40:34;;;;;;;;;;;;;;;;;;2095264;28;20102;-41
2022/03/30 01:41:35;;;;;;;;;;;;;;;;;;2095984;28;19928;-41
2022/03/30 01:42:36;;;;;;;;;;;;;;;;;;2096252;28;21222;-42
2022/03/30 01:43:37;;;;;;;;;;;;;;;;;;2096394;28;19970;-47
2022/03/30 01:44:38;;;;;;;;;;;;;;;;;;2098038;28;19924;-47
2022/03/30 01:45:39;;;;;;;;;;;;;;;;;;2098367;28;19924;-46
2022/03/30 01:46:40;;;;;;;;;;;;;;;;;;2097835;28;19924;-47
2022/03/30 01:47:42;;;;;;;;;;;;;;;;;;2097726;28;20382;-48
2022/03/30 01:48:42;;;;;;;;;;;;;;;;;;2098794;28;19925;-49
2022/03/30 01:49:44;;;;;;;;;;;;;;;;;;2098044;28;20070;-47
2022/03/30 01:50:45;;;;;;;;;;;;;;;;;;2098060;28;20306;-48
2022/03/30 01:51:46;;;;;;;;;;;;;;;;;;2097974;28;20396;-47
2022/03/30 01:52:47;;;;;;;;;;;;;;;;;;2098942;28;19931;-48
2022/03/30 01:53:48;;;;;;;;;;;;;;;;;;2098445;28;19932;-42
2022/03/30 01:54:49;;;;;;;;;;;;;;;;;;2097438;28;19929;-42
2022/03/30 01:55:50;;;;;;;;;;;;;;;;;;2097542;28;19948;-41
2022/03/30 01:56:51;;;;;;;;;;;;;;;;;;2097059;28;20343;-42
2022/03/30 01:57:52;;;;;;;;;;;;;;;;;;2097388;28;19924;-48
2022/03/30 01:58:53;;;;;;;;;;;;;;;;;;2097940;28;19924;-47
2022/03/30 01:59:54;;;;;;;;;;;;;;;;;;2098333;28;19931;-48
2022/03/30 02:00:56;;;;;;;;;;;;;;;;;;2097315;28;19947;-47
2022/03/30 02:01:57;;;;;;;;;;;;;;;;;;2098033;28;19963;-42
2022/03/30 02:02:59;;;;;;;;;;;;;;;;;;2097802;28;19925;-42
2022/03/30 02:04:00;;;;;;;;;;;;;;;;;;2097880;28;19928;-42
2022/03/30 02:05:01;;;;;;;;;;;;;;;;;;2097611;28;19959;-46
2022/03/30 02:06:02;;;;;;;;;;;;;;;;;;2097636;28;19937;-47
2022/03/30 02:07:03;;;;;;;;;;;;;;;;;;2097730;28;19924;-47
2022/03/30 02:08:05;;;;;;;;;;;;;;;;;;2098228;28;19925;-41
2022/03/30 02:09:06;;;;;;;;;;;;;;;;;;2097569;28;19951;-41
2022/03/30 02:10:07;;;;;;;;;;;;;;;;;;2097686;28;20378;-42
2022/03/30 02:11:08;;;;;;;;;;;;;;;;;;2097469;28;19932;-41
2022/03/30 02:12:09;;;;;;;;;;;;;;;;;;2097595;28;19925;-42
2022/03/30 02:13:10;;;;;;;;;;;;;;;;;;2097852;28;19924;-42
2022/03/30 02:14:12;;;;;;;;;;;;;;;;;;2097698;28;19936;-41
2022/03/30 02:15:14;;;;;;;;;;;;;;;;;;2098054;28;19925;-47
2022/03/30 02:16:15;;;;;;;;;;;;;;;;;;2097316;28;19978;-47
2022/03/30 02:17:18;;;;;;;;;;;;;;;;;;2097592;28;20021;-47
2022/03/30 02:18:20;;;;;;;;;;;;;;;;;;2097552;28;19924;-47
2022/03/30 02:19:21;;;;;;;;;;;;;;;;;;2098495;28;19925;-47
2022/03/30 02:20:22;;;;;;;;;;;;;;;;;;2096981;28;19947;-47
2022/03/30 02:21:24;;;;;;;;;;;;;;;;;;2098789;28;19932;-41
2022/03/30 02:22:25;;;;;;;;;;;;;;;;;;2098589;28;19935;-42
2022/03/30 02:23:26;;;;;;;;;;;;;;;;;;2098556;28;20396;-42
2022/03/30 02:24:27;;;;;;;;;;;;;;;;;;2098530;28;19932;-41
2022/03/30 02:25:28;;;;;;;;;;;;;;;;;;2098530;28;20361;-41
2022/03/30 02:26:30;;;;;;;;;;;;;;;;;;2097852;28;19970;-42
2022/03/30 02:27:31;;;;;;;;;;;;;;;;;;2098393;28;20381;-42
2022/03/30 02:28:32;;;;;;;;;;;;;;;;;;2098741;28;19931;-47
2022/03/30 02:29:34;;;;;;;;;;;;;;;;;;2097806;28;19971;-47
2022/03/30 02:30:35;;;;;;;;;;;;;;;;;;2098752;28;20430;-46
2022/03/30 02:31:36;;;;;;;;;;;;;;;;;;2098778;28;19977;-50
2022/03/30 02:32:37;;;;;;;;;;;;;;;;;;2098438;28;19987;-48
2022/03/30 02:33:39;;;;;;;;;;;;;;;;;;2098487;28;20016;-47
2022/03/30 02:34:40;;;;;;;;;;;;;;;;;;2098769;28;19948;-42
2022/03/30 02:35:41;;;;;;;;;;;;;;;;;;2098462;28;19930;-42
2022/03/30 02:36:43;;;;;;;;;;;;;;;;;;2098433;28;19931;-42
2022/03/30 02:37:44;;;;;;;;;;;;;;;;;;2098678;28;19931;-42
2022/03/30 02:38:45;;;;;;;;;;;;;;;;;;2098656;28;20011;-41
2022/03/30 02:39:46;;;;;;;;;;;;;;;;;;2098735;28;19932;-47
2022/03/30 02:40:47;;;;;;;;;;;;;;;;;;2098707;28;19924;-47
2022/03/30 02:41:48;;;;;;;;;;;;;;;;;;2098361;28;19931;-48
2022/03/30 02:42:49;;;;;;;;;;;;;;;;;;2098772;28;19929;-42
2022/03/30 02:43:50;;;;;;;;;;;;;;;;;;2098712;28;19974;-45
2022/03/30 02:44:51;;;;;;;;;;;;;;;;;;2098896;28;19924;-48
2022/03/30 02:45:52;;;;;;;;;;;;;;;;;;2090371;28;20382;-42
2022/03/30 02:46:53;;;;;;;;;;;;;;;;;;2090801;28;19932;-42
2022/03/30 02:49:14;;;;;;;;;;;;;;;;;;2090282;28;19928;-41
2022/03/30 02:50:15;;;;;;;;;;;;;;;;;;2090155;28;19925;-42
2022/03/30 02:51:16;;;;;;;;;;;;;;;;;;2090249;28;19928;-46
2022/03/30 02:52:17;;;;;;;;;;;;;;;;;;2097664;28;19928;-43
2022/03/30 02:53:18;;;;;;;;;;;;;;;;;;2098392;28;19931;-41
2022/03/30 02:54:19;;;;;;;;;;;;;;;;;;2098253;28;20361;-42
2022/03/30 02:55:20;;;;;;;;;;;;;;;;;;2097567;28;19940;-42
2022/03/30 02:56:21;;;;;;;;;;;;;;;;;;2098166;28;19932;-42
2022/03/30 02:57:22;;;;;;;;;;;;;;;;;;2098338;28;19924;-42
2022/03/30 02:58:23;;;;;;;;;;;;;;;;;;2098410;28;20016;-42
2022/03/30 02:59:24;;;;;;;;;;;;;;;;;;2098406;28;19925;-42
2022/03/30 03:00:26;;;;;;;;;;;;;;;;;;2098279;28;19935;-47
2022/03/30 03:01:26;;;;;;;;;;;;;;;;;;2098181;28;20365;-47
2022/03/30 03:02:28;;;;;;;;;;;;;;;;;;2098581;28;19924;-42
2022/03/30 03:03:28;;;;;;;;;;;;;;;;;;2098286;28;19924;-41
2022/03/30 03:04:30;;;;;;;;;;;;;;;;;;2098246;28;19924;-48
2022/03/30 03:05:32;;;;;;;;;;;;;;;;;;2098374;28;19932;-47
2022/03/30 03:06:34;;;;;;;;;;;;;;;;;;2098159;28;19924;-46
2022/03/30 03:07:34;;;;;;;;;;;;;;;;;;2098679;28;19924;-46
2022/03/30 03:08:36;;;;;;;;;;;;;;;;;;2098111;28;20273;-46
2022/03/30 03:09:37;;;;;;;;;;;;;;;;;;2097632;28;19924;-48
2022/03/30 03:10:38;;;;;;;;;;;;;;;;;;2097785;28;19924;-46
2022/03/30 03:11:39;;;;;;;;;;;;;;;;;;2098306;28;19928;-46
2022/03/30 03:12:40;;;;;;;;;;;;;;;;;;2098110;28;19924;-47
2022/03/30 03:13:41;;;;;;;;;;;;;;;;;;2098515;28;19924;-47
2022/03/30 03:14:42;;;;;;;;;;;;;;;;;;2098317;28;20377;-47
2022/03/30 03:15:43;;;;;;;;;;;;;;;;;;2098383;28;19974;-42
2022/03/30 03:16:45;;;;;;;;;;;;;;;;;;2098302;28;19932;-42
2022/03/30 03:17:46;;;;;;;;;;;;;;;;;;2098381;28;19928;-42
2022/03/30 03:18:47;;;;;;;;;;;;;;;;;;2097947;28;19925;-42
2022/03/30 03:19:48;;;;;;;;;;;;;;;;;;2098529;28;19932;-47
2022/03/30 03:20:49;;;;;;;;;;;;;;;;;;2098211;28;20169;-47
2022/03/30 03:21:50;;;;;;;;;;;;;;;;;;2097908;28;19924;-47
2022/03/30 03:22:51;;;;;;;;;;;;;;;;;;2098347;28;19924;-49
2022/03/30 03:23:53;;;;;;;;;;;;;;;;;;2098418;28;20389;-42
2022/03/30 03:24:54;;;;;;;;;;;;;;;;;;2098180;28;20293;-42
2022/03/30 03:25:55;;;;;;;;;;;;;;;;;;2098223;28;19924;-42
2022/03/30 03:26:56;;;;;;;;;;;;;;;;;;2098178;28;20324;-42
2022/03/30 03:27:57;;;;;;;;;;;;;;;;;;2098086;28;19933;-42
2022/03/30 03:28:58;;;;;;;;;;;;;;;;;;2098019;28;19929;-42
2022/03/30 03:29:59;;;;;;;;;;;;;;;;;;2098299;28;20279;-42
2022/03/30 03:31:00;;;;;;;;;;;;;;;;;;2098150;28;19958;-47
2022/03/30 03:32:01;;;;;;;;;;;;;;;;;;2098104;28;19931;-47
2022/03/30 03:33:03;;;;;;;;;;;;;;;;;;2098103;28;19931;-47
2022/03/30 03:34:04;;;;;;;;;;;;;;;;;;2098328;28;19925;-42
2022/03/30 03:35:07;;;;;;;;;;;;;;;;;;2098061;28;19929;-42
2022/03/30 03:36:08;;;;;;;;;;;;;;;;;;2098285;28;20217;-42
2022/03/30 03:37:09;;;;;;;;;;;;;;;;;;2098210;28;19970;-42
2022/03/30 03:38:10;;;;;;;;;;;;;;;;;;2098557;28;19924;-42
2022/03/30 03:39:11;;;;;;;;;;;;;;;;;;2098526;28;19932;-42
2022/03/30 03:40:12;;;;;;;;;;;;;;;;;;2098112;28;19964;-42
2022/03/30 03:41:13;;;;;;;;;;;;;;;;;;2098123;28;19924;-42
2022/03/30 03:42:14;;;;;;;;;;;;;;;;;;2098106;28;20846;-42
2022/03/30 03:43:15;;;;;;;;;;;;;;;;;;2098404;28;19983;-42
2022/03/30 03:44:16;;;;;;;;;;;;;;;;;;2098196;28;19935;-41
2022/03/30 03:45:17;;;;;;;;;;;;;;;;;;2098423;28;19924;-47
2022/03/30 03:46:18;;;;;;;;;;;;;;;;;;2098343;28;19925;-42
2022/03/30 03:47:22;;;;;;;;;;;;;;;;;;2098205;28;19924;-48
2022/03/30 03:48:23;;;;;;;;;;;;;;;;;;2097989;28;19947;-47
2022/03/30 03:49:24;;;;;;;;;;;;;;;;;;2098273;28;19970;-42
2022/03/30 03:50:26;;;;;;;;;;;;;;;;;;2098123;28;19929;-42
2022/03/30 03:51:26;;;;;;;;;;;;;;;;;;2098316;28;19924;-47
2022/03/30 03:52:28;;;;;;;;;;;;;;;;;;2098373;28;19932;-42
2022/03/30 03:53:28;;;;;;;;;;;;;;;;;;2098187;28;19924;-42
2022/03/30 03:54:30;;;;;;;;;;;;;;;;;;2098220;28;19963;-41
2022/03/30 03:55:33;;;;;;;;;;;;;;;;;;2097998;28;19932;-42
2022/03/30 03:56:34;;;;;;;;;;;;;;;;;;2098147;28;19959;-42
2022/03/30 03:57:37;;;;;;;;;;;;;;;;;;2098482;28;19929;-42
2022/03/30 03:58:39;;;;;;;;;;;;;;;;;;2098342;28;19924;-47
2022/03/30 03:59:39;;;;;;;;;;;;;;;;;;2098101;28;19979;-47
2022/03/30 04:00:41;;;;;;;;;;;;;;;;;;2098308;28;19924;-47
2022/03/30 04:01:42;;;;;;;;;;;;;;;;;;2098245;28;19924;-47
2022/03/30 04:02:43;;;;;;;;;;;;;;;;;;2098502;28;19924;-47
2022/03/30 04:03:44;;;;;;;;;;;;;;;;;;2098027;28;20370;-48
2022/03/30 04:04:45;;;;;;;;;;;;;;;;;;2097620;28;20011;-47
2022/03/30 04:05:48;;;;;;;;;;;;;;;;;;2098048;28;19931;-42
2022/03/30 04:06:49;;;;;;;;;;;;;;;;;;2098114;28;20293;-47
2022/03/30 04:07:50;;;;;;;;;;;;;;;;;;2098075;28;19966;-47
2022/03/30 04:08:54;;;;;;;;;;;;;;;;;;2098488;28;19960;-42
2022/03/30 04:09:55;;;;;;;;;;;;;;;;;;2097881;28;19969;-46
2022/03/30 04:10:57;;;;;;;;;;;;;;;;;;2098066;28;19928;-46
2022/03/30 04:11:57;;;;;;;;;;;;;;;;;;2097640;28;19928;-48
2022/03/30 04:12:59;;;;;;;;;;;;;;;;;;2096285;28;19924;-47
2022/03/30 04:14:00;;;;;;;;;;;;;;;;;;2096512;28;19924;-42
2022/03/30 04:15:02;;;;;;;;;;;;;;;;;;2098054;28;19924;-47
2022/03/30 04:16:04;;;;;;;;;;;;;;;;;;2097736;28;19924;-46
2022/03/30 04:17:04;;;;;;;;;;;;;;;;;;2098453;28;19924;-48
2022/03/30 04:18:07;;;;;;;;;;;;;;;;;;2097714;28;19932;-48
2022/03/30 04:19:08;;;;;;;;;;;;;;;;;;2098140;28;20270;-42
2022/03/30 04:20:09;;;;;;;;;;;;;;;;;;2098031;28;19932;-46
2022/03/30 04:21:11;;;;;;;;;;;;;;;;;;2097771;28;19932;-42
2022/03/30 04:22:11;;;;;;;;;;;;;;;;;;2097165;28;20541;-42
2022/03/30 04:23:13;;;;;;;;;;;;;;;;;;2097578;28;19939;-42
2022/03/30 04:24:14;;;;;;;;;;;;;;;;;;2097891;28;19924;-41
2022/03/30 04:25:15;;;;;;;;;;;;;;;;;;2097021;28;19924;-42
2022/03/30 04:26:16;;;;;;;;;;;;;;;;;;2094205;28;19943;-42
2022/03/30 04:27:17;;;;;;;;;;;;;;;;;;2097668;28;20000;-42
2022/03/30 04:28:18;;;;;;;;;;;;;;;;;;2097581;28;19924;-47
2022/03/30 04:29:19;;;;;;;;;;;;;;;;;;2097676;28;19933;-47
2022/03/30 04:30:20;;;;;;;;;;;;;;;;;;2097082;28;19930;-46
2022/03/30 04:31:21;;;;;;;;;;;;;;;;;;2097558;28;19929;-48
2022/03/30 04:32:22;;;;;;;;;;;;;;;;;;2096328;28;20348;-42
2022/03/30 04:33:23;;;;;;;;;;;;;;;;;;2097721;28;20361;-42
2022/03/30 04:34:24;;;;;;;;;;;;;;;;;;2097094;28;19924;-42
2022/03/30 04:35:25;;;;;;;;;;;;;;;;;;2096060;28;20302;-47
2022/03/30 04:36:26;;;;;;;;;;;;;;;;;;2096858;28;20408;-42
2022/03/30 04:37:27;;;;;;;;;;;;;;;;;;2096592;28;19932;-42
2022/03/30 04:38:29;;;;;;;;;;;;;;;;;;2097216;28;19960;-46
2022/03/30 04:39:30;;;;;;;;;;;;;;;;;;2096953;28;19977;-48
2022/03/30 04:40:31;;;;;;;;;;;;;;;;;;2096662;28;20309;-47
2022/03/30 04:41:32;;;;;;;;;;;;;;;;;;2096727;28;19933;-50
2022/03/30 04:42:35;;;;;;;;;;;;;;;;;;2089651;28;19929;-47
2022/03/30 04:43:36;;;;;;;;;;;;;;;;;;2095325;28;19928;-47
2022/03/30 04:44:37;;;;;;;;;;;;;;;;;;2097886;28;19974;-42
2022/03/30 04:45:38;;;;;;;;;;;;;;;;;;2100288;28;20288;-47
2022/03/30 04:46:40;;;;;;;;;;;;;;;;;;2097951;28;19977;-42
2022/03/30 04:47:41;;;;;;;;;;;;;;;;;;2102002;28;19963;-48
2022/03/30 04:48:44;;;;;;;;;;;;;;;;;;2101795;28;19991;-48
2022/03/30 04:49:45;;;;;;;;;;;;;;;;;;2100832;28;19928;-47
2022/03/30 04:50:47;;;;;;;;;;;;;;;;;;2102058;28;20297;-47
2022/03/30 04:51:48;;;;;;;;;;;;;;;;;;2100195;28;19931;-42
2022/03/30 04:52:49;;;;;;;;;;;;;;;;;;2097663;28;19925;-42
2022/03/30 04:53:51;;;;;;;;;;;;;;;;;;2102804;28;20559;-42
2022/03/30 04:54:54;;;;;;;;;;;;;;;;;;2094722;28;19924;-42
2022/03/30 04:55:55;;;;;;;;;;;;;;;;;;2105629;28;19928;-42
2022/03/30 04:56:57;;;;;;;;;;;;;;;;;;2105943;28;19928;-42
2022/03/30 04:57:58;;;;;;;;;;;;;;;;;;2104189;28;19951;-48
2022/03/30 04:59:00;;;;;;;;;;;;;;;;;;2097695;28;19929;-47
2022/03/30 05:00:02;;;;;;;;;;;;;;;;;;2103860;28;19928;-42
2022/03/30 05:01:04;;;;;;;;;;;;;;;;;;2105964;28;19924;-42
2022/03/30 05:02:06;;;;;;;;;;;;;;;;;;2105764;28;20081;-47
2022/03/30 05:03:07;;;;;;;;;;;;;;;;;;2105372;28;19990;-47
2022/03/30 05:04:09;;;;;;;;;;;;;;;;;;2100332;28;19931;-48
2022/03/30 05:05:10;;;;;;;;;;;;;;;;;;2097053;28;20370;-42
2022/03/30 05:06:11;;;;;;;;;;;;;;;;;;2096781;28;19955;-42
2022/03/30 05:07:14;;;;;;;;;;;;;;;;;;2097653;28;20076;-42
2022/03/30 05:08:15;;;;;;;;;;;;;;;;;;2098147;28;19924;-42
2022/03/30 05:09:16;;;;;;;;;;;;;;;;;;2097618;28;19924;-42
2022/03/30 05:10:17;;;;;;;;;;;;;;;;;;2097604;28;19924;-42
2022/03/30 05:11:18;;;;;;;;;;;;;;;;;;2097574;28;19924;-42
2022/03/30 05:12:21;;;;;;;;;;;;;;;;;;2097728;28;19925;-42
2022/03/30 05:13:23;;;;;;;;;;;;;;;;;;2097601;28;19924;-48
2022/03/30 05:14:24;;;;;;;;;;;;;;;;;;2097550;28;19931;-47
2022/03/30 05:15:28;;;;;;;;;;;;;;;;;;2097911;28;19936;-48
2022/03/30 05:16:29;;;;;;;;;;;;;;;;;;2097767;28;19925;-49
2022/03/30 05:17:30;;;;;;;;;;;;;;;;;;2097885;28;19928;-47
2022/03/30 05:18:31;;;;;;;;;;;;;;;;;;2098029;28;20373;-42
2022/03/30 05:19:33;;;;;;;;;;;;;;;;;;2099103;28;19950;-42
2022/03/30 05:20:35;;;;;;;;;;;;;;;;;;2099039;28;19970;-42
2022/03/30 05:21:36;;;;;;;;;;;;;;;;;;2098902;28;19936;-42
2022/03/30 05:22:36;;;;;;;;;;;;;;;;;;2099537;28;19929;-47
2022/03/30 05:23:38;;;;;;;;;;;;;;;;;;2099113;28;20054;-48
2022/03/30 05:24:39;;;;;;;;;;;;;;;;;;2099224;28;19935;-42
2022/03/30 05:25:40;;;;;;;;;;;;;;;;;;2098838;28;19932;-42
2022/03/30 05:26:40;;;;;;;;;;;;;;;;;;2098877;28;20297;-42
2022/03/30 05:27:42;;;;;;;;;;;;;;;;;;2099129;28;20011;-42
2022/03/30 05:28:43;;;;;;;;;;;;;;;;;;2099107;28;19924;-41
2022/03/30 05:29:44;;;;;;;;;;;;;;;;;;2099087;28;19924;-42
2022/03/30 05:30:44;;;;;;;;;;;;;;;;;;2098952;28;20412;-42
2022/03/30 05:31:46;;;;;;;;;;;;;;;;;;2099461;28;19924;-47
2022/03/30 05:33:07;;;;;;;;;;;;;;;;;;2099047;28;19971;-49
2022/03/30 05:34:09;;;;;;;;;;;;;;;;;;2099010;28;19924;-47
2022/03/30 05:35:10;;;;;;;;;;;;;;;;;;2098259;28;20300;-47
2022/03/30 05:36:12;;;;;;;;;;;;;;;;;;2097549;28;19924;-47
2022/03/30 05:37:13;;;;;;;;;;;;;;;;;;2098403;28;20266;-42
2022/03/30 05:38:14;;;;;;;;;;;;;;;;;;2098184;28;19932;-42
2022/03/30 05:39:14;;;;;;;;;;;;;;;;;;2098676;28;19924;-42
2022/03/30 05:40:16;;;;;;;;;;;;;;;;;;2098097;28;19932;-42
2022/03/30 05:41:17;;;;;;;;;;;;;;;;;;2098217;28;19924;-47
2022/03/30 05:42:20;;;;;;;;;;;;;;;;;;2097748;28;19935;-47
2022/03/30 05:43:21;;;;;;;;;;;;;;;;;;2097106;28;19928;-42
2022/03/30 05:44:22;;;;;;;;;;;;;;;;;;2098168;28;19924;-47
2022/03/30 05:45:23;;;;;;;;;;;;;;;;;;2097825;28;19947;-47
2022/03/30 05:46:25;;;;;;;;;;;;;;;;;;2098742;28;20461;-46
2022/03/30 05:47:28;;;;;;;;;;;;;;;;;;2099156;28;19924;-42
2022/03/30 05:48:29;;;;;;;;;;;;;;;;;;2098934;28;19924;-42
2022/03/30 05:49:30;;;;;;;;;;;;;;;;;;2098237;28;19924;-42
2022/03/30 05:50:31;;;;;;;;;;;;;;;;;;2098922;28;19931;-42
2022/03/30 05:51:32;;;;;;;;;;;;;;;;;;2098675;28;19931;-47
2022/03/30 05:52:33;;;;;;;;;;;;;;;;;;2098855;28;19924;-49
2022/03/30 05:53:34;;;;;;;;;;;;;;;;;;2097682;28;19935;-47
2022/03/30 05:54:35;;;;;;;;;;;;;;;;;;2097789;28;19924;-49
2022/03/30 05:55:36;;;;;;;;;;;;;;;;;;2097814;28;19935;-47
2022/03/30 05:57:58;;;;;;;;;;;;;;;;;;2097637;28;19947;-42
2022/03/30 05:58:58;;;;;;;;;;;;;;;;;;2098363;28;20003;-48
2022/03/30 06:00:00;;;;;;;;;;;;;;;;;;2098032;28;19935;-49
2022/03/30 06:01:01;;;;;;;;;;;;;;;;;;2098090;28;19929;-42
2022/03/30 06:02:02;;;;;;;;;;;;;;;;;;2097236;28;19936;-42
2022/03/30 06:03:03;;;;;;;;;;;;;;;;;;2098180;28;20281;-42
2022/03/30 06:04:04;;;;;;;;;;;;;;;;;;2098861;28;20333;-44
2022/03/30 06:05:05;;;;;;;;;;;;;;;;;;2098709;28;19924;-42
2022/03/30 06:06:06;;;;;;;;;;;;;;;;;;2098705;28;19935;-42
2022/03/30 06:07:07;;;;;;;;;;;;;;;;;;2098781;28;20008;-42
2022/03/30 06:08:09;;;;;;;;;;;;;;;;;;2098783;28;19936;-41
2022/03/30 06:09:10;;;;;;;;;;;;;;;;;;2098488;28;20404;-42
2022/03/30 06:10:11;;;;;;;;;;;;;;;;;;2099193;28;19932;-47
2022/03/30 06:11:12;;;;;;;;;;;;;;;;;;2098642;28;19936;-49
2022/03/30 06:12:14;;;;;;;;;;;;;;;;;;2098910;28;19925;-42
2022/03/30 06:13:15;;;;;;;;;;;;;;;;;;2098980;28;19928;-49
2022/03/30 06:14:16;;;;;;;;;;;;;;;;;;2098717;28;20339;-50
2022/03/30 06:15:17;;;;;;;;;;;;;;;;;;2098482;28;19928;-47
2022/03/30 06:16:18;;;;;;;;;;;;;;;;;;2098663;28;19924;-47
2022/03/30 06:17:20;;;;;;;;;;;;;;;;;;2098809;28;19924;-49
2022/03/30 06:18:22;;;;;;;;;;;;;;;;;;2097863;28;20354;-43
2022/03/30 06:19:24;;;;;;;;;;;;;;;;;;2098881;28;19924;-43
2022/03/30 06:20:25;;;;;;;;;;;;;;;;;;2098818;28;19928;-42
2022/03/30 06:21:26;;;;;;;;;;;;;;;;;;2098174;28;20258;-42
2022/03/30 06:22:30;;;;;;;;;;;;;;;;;;2098663;28;19967;-42
2022/03/30 06:23:31;;;;;;;;;;;;;;;;;;2098676;28;20293;-42
2022/03/30 06:24:32;;;;;;;;;;;;;;;;;;2098598;28;19932;-42
2022/03/30 06:25:34;;;;;;;;;;;;;;;;;;2098675;28;19925;-42
2022/03/30 06:26:35;;;;;;;;;;;;;;;;;;2098514;28;19924;-42
2022/03/30 06:27:36;;;;;;;;;;;;;;;;;;2098638;28;20003;-42
2022/03/30 06:28:37;;;;;;;;;;;;;;;;;;2099026;28;19925;-42
2022/03/30 06:29:39;;;;;;;;;;;;;;;;;;2098591;28;19982;-42
2022/03/30 06:30:40;;;;;;;;;;;;;;;;;;2097474;28;20381;-42
2022/03/30 06:31:42;;;;;;;;;;;;;;;;;;2098506;28;19924;-42
2022/03/30 06:32:49;;;;;;;;;;;;;;;;;;2098579;28;20137;-42
2022/03/30 06:33:50;;;;;;;;;;;;;;;;;;2098944;28;20382;-47
2022/03/30 06:34:52;;;;;;;;;;;;;;;;;;2098887;28;19925;-48
2022/03/30 06:35:54;;;;;;;;;;;;;;;;;;2098751;28;19988;-43
2022/03/30 06:36:56;;;;;;;;;;;;;;;;;;2098360;28;20011;-43
2022/03/30 06:37:57;;;;;;;;;;;;;;;;;;2098616;28;19929;-43
2022/03/30 06:38:58;;;;;;;;;;;;;;;;;;2098769;28;20400;-42
2022/03/30 06:39:59;;;;;;;;;;;;;;;;;;2098368;28;20062;-43
2022/03/30 06:41:01;;;;;;;;;;;;;;;;;;2098658;28;19928;-43
2022/03/30 06:42:03;;;;;;;;;;;;;;;;;;2098454;28;20392;-43
2022/03/30 06:43:05;;;;;;;;;;;;;;;;;;2098430;28;19991;-43
2022/03/30 06:44:06;;;;;;;;;;;;;;;;;;2098494;28;20435;-42
2022/03/30 06:45:09;;;;;;;;;;;;;;;;;;2098265;28;19990;-48
2022/03/30 06:46:11;;;;;;;;;;;;;;;;;;2098069;28;19960;-47
2022/03/30 06:47:13;;;;;;;;;;;;;;;;;;2098503;28;19928;-49
2022/03/30 06:48:14;;;;;;;;;;;;;;;;;;2098323;28;19973;-43
2022/03/30 06:49:17;;;;;;;;;;;;;;;;;;2098445;28;19978;-48
2022/03/30 06:50:19;;;;;;;;;;;;;;;;;;2098054;28;19924;-48
2022/03/30 06:51:20;;;;;;;;;;;;;;;;;;2098240;28;19981;-43
2022/03/30 06:52:22;;;;;;;;;;;;;;;;;;2098732;28;20019;-48
2022/03/30 06:53:23;;;;;;;;;;;;;;;;;;2098417;28;20015;-48
2022/03/30 06:54:25;;;;;;;;;;;;;;;;;;2098746;28;19946;-43
2022/03/30 06:55:26;;;;;;;;;;;;;;;;;;2098307;28;19928;-43
2022/03/30 06:56:28;;;;;;;;;;;;;;;;;;2098435;28;20340;-48
2022/03/30 06:57:29;;;;;;;;;;;;;;;;;;2098424;28;19931;-48
2022/03/30 06:58:31;;;;;;;;;;;;;;;;;;2098652;28;19932;-47
2022/03/30 06:59:32;;;;;;;;;;;;;;;;;;2098315;28;20042;-48
2022/03/30 07:00:34;;;;;;;;;;;;;;;;;;2098404;28;19971;-48
2022/03/30 07:01:35;;;;;;;;;;;;;;;;;;2098565;28;20381;-43
2022/03/30 07:02:37;;;;;;;;;;;;;;;;;;2098384;28;19924;-43
2022/03/30 07:03:39;;;;;;;;;;;;;;;;;;2098381;28;19924;-48
2022/03/30 07:04:41;;;;;;;;;;;;;;;;;;2098022;28;19925;-43